Time;durP1;ratioP1;P1;durP2;ratioP2;P2;SDS_P1;SDS_P2;PMS_P1;PMS_P2;Temp;Humidity;BMP_temperature;BMP_pressure;BME280_temperature;BME280_humidity;BME280_pressure;Samples;Min_cycle;Max_cycle;Signal;HPM_P1;HPM_P2
2023/06/20 00:00:06;;;;;;;10.88;7.60;;;22.90;99.90;;;;;;5059138;28;20044;-59
2023/06/20 00:02:32;;;;;;;12.10;7.07;;;22.80;99.90;;;;;;5061669;28;20037;-58
2023/06/20 00:05:00;;;;;;;11.63;7.72;;;22.80;99.90;;;;;;5061820;28;20089;-58
2023/06/20 00:07:26;;;;;;;12.32;7.50;;;22.90;99.90;;;;;;5057290;28;20037;-58
2023/06/20 00:09:51;;;;;;;14.10;7.50;;;22.80;99.90;;;;;;5059233;28;20036;-58
2023/06/20 00:12:17;;;;;;;10.68;6.93;;;22.80;99.90;;;;;;5058392;28;20687;-59
2023/06/20 00:14:42;;;;;;;10.70;7.10;;;22.90;99.90;;;;;;5056039;28;20416;-58
2023/06/20 00:17:08;;;;;;;14.07;7.32;;;22.90;99.90;;;;;;5063394;28;20044;-58
2023/06/20 00:19:34;;;;;;;11.45;7.70;;;23.00;99.90;;;;;;5061366;28;20044;-58
2023/06/20 00:22:02;;;;;;;13.48;7.93;;;23.00;99.90;;;;;;5056493;28;20037;-58
2023/06/20 00:24:28;;;;;;;13.45;7.18;;;22.80;99.90;;;;;;5061885;28;20127;-58
2023/06/20 00:26:56;;;;;;;11.52;7.95;;;22.90;99.90;;;;;;5059252;28;20041;-59
2023/06/20 00:29:21;;;;;;;14.48;7.85;;;22.90;99.90;;;;;;5059135;28;20700;-58
2023/06/20 00:31:47;;;;;;;12.00;7.70;;;22.70;99.90;;;;;;5063766;28;20036;-58
2023/06/20 00:34:12;;;;;;;13.43;7.80;;;22.70;99.90;;;;;;5060738;28;20746;-58
2023/06/20 00:36:38;;;;;;;12.52;7.20;;;22.60;99.90;;;;;;5062994;28;20043;-58
2023/06/20 00:39:04;;;;;;;16.63;8.07;;;22.70;99.90;;;;;;5063552;28;20051;-58
2023/06/20 00:41:31;;;;;;;13.88;7.53;;;22.70;99.90;;;;;;5062509;28;20036;-58
2023/06/20 00:44:02;;;;;;;10.55;7.72;;;22.80;99.90;;;;;;5054356;28;20040;-58
2023/06/20 00:46:34;;;;;;;11.43;7.50;;;22.80;99.90;;;;;;5061257;28;20077;-58
2023/06/20 00:49:03;;;;;;;10.88;7.38;;;22.80;99.90;;;;;;5064379;28;20037;-58
2023/06/20 00:51:29;;;;;;;9.70;7.05;;;22.70;99.90;;;;;;5062245;28;20094;-58
2023/06/20 00:53:56;;;;;;;10.40;7.55;;;22.80;99.90;;;;;;5063060;28;20040;-59
2023/06/20 00:56:24;;;;;;;11.65;7.57;;;22.90;99.90;;;;;;5063987;28;20079;-58
2023/06/20 00:58:49;;;;;;;10.63;7.18;;;23.00;99.90;;;;;;5058361;28;20123;-58
2023/06/20 01:01:18;;;;;;;12.80;8.18;;;22.90;99.90;;;;;;5056194;28;20162;-59
2023/06/20 01:03:46;;;;;;;12.32;7.00;;;22.90;99.90;;;;;;5057268;28;20068;-58
2023/06/20 01:06:20;;;;;;;11.10;7.05;;;22.80;99.90;;;;;;5060254;28;20793;-59
2023/06/20 01:09:18;;;;;;;9.60;6.82;;;22.70;99.90;;;;;;5065333;28;20084;-58
2023/06/20 01:11:55;;;;;;;11.75;7.25;;;22.70;99.90;;;;;;5064895;28;20097;-58
2023/06/20 01:14:48;;;;;;;9.70;7.03;;;22.50;99.90;;;;;;5067884;28;20033;-60
2023/06/20 01:17:26;;;;;;;12.43;8.07;;;22.70;99.90;;;;;;5060867;28;20527;-59
2023/06/20 01:20:33;;;;;;;9.98;7.38;;;22.70;99.90;;;;;;5059502;28;20327;-59
2023/06/20 01:23:03;;;;;;;10.57;7.53;;;22.50;99.90;;;;;;5055593;28;20086;-58
2023/06/20 01:26:07;;;;;;;8.88;6.90;;;22.40;99.90;;;;;;5059382;28;20141;-59
2023/06/20 01:28:41;;;;;;;11.35;7.20;;;22.30;99.90;;;;;;5027835;28;20484;-59
2023/06/20 01:31:12;;;;;;;11.10;7.25;;;22.10;99.90;;;;;;5059639;28;20197;-59
2023/06/20 01:33:49;;;;;;;12.70;7.38;;;22.10;99.90;;;;;;5052254;28;20032;-58
2023/06/20 01:36:21;;;;;;;14.07;7.15;;;22.30;99.90;;;;;;5060686;28;20043;-58
2023/06/20 01:38:50;;;;;;;8.50;6.95;;;22.30;99.90;;;;;;5057495;28;20412;-59
2023/06/20 01:41:21;;;;;;;9.10;6.97;;;22.30;99.90;;;;;;5051801;28;20044;-59
2023/06/20 01:43:48;;;;;;;9.27;6.95;;;22.20;99.90;;;;;;5064480;28;20135;-59
2023/06/20 01:46:16;;;;;;;11.77;7.10;;;22.00;99.90;;;;;;5063982;28;20090;-58
2023/06/20 01:48:43;;;;;;;10.25;7.10;;;22.10;99.90;;;;;;5063676;28;20036;-59
2023/06/20 01:51:10;;;;;;;9.75;7.57;;;22.10;99.90;;;;;;5063181;28;20248;-58
2023/06/20 01:53:37;;;;;;;9.23;7.68;;;22.20;99.90;;;;;;5059958;28;21401;-58
2023/06/20 01:56:04;;;;;;;10.35;7.70;;;22.10;99.90;;;;;;5060815;28;20121;-58
2023/06/20 01:58:31;;;;;;;9.45;7.30;;;22.00;99.90;;;;;;5058721;28;20025;-58
2023/06/20 02:00:58;;;;;;;9.10;7.32;;;21.90;99.90;;;;;;5061317;28;20171;-58
2023/06/20 02:03:28;;;;;;;9.75;7.28;;;21.90;99.90;;;;;;5057314;28;20032;-59
2023/06/20 02:05:58;;;;;;;8.68;7.15;;;21.80;99.90;;;;;;5059340;28;20824;-58
2023/06/20 02:08:25;;;;;;;9.65;7.15;;;21.80;99.90;;;;;;5062126;28;20040;-58
2023/06/20 02:10:52;;;;;;;10.25;7.57;;;21.80;99.90;;;;;;5059371;28;20032;-58
2023/06/20 02:13:21;;;;;;;9.85;7.53;;;21.80;99.90;;;;;;5064433;28;20036;-58
2023/06/20 02:15:50;;;;;;;10.18;7.57;;;21.80;99.90;;;;;;5054468;28;20037;-58
2023/06/20 02:18:16;;;;;;;8.38;7.05;;;21.80;99.90;;;;;;5052445;28;20041;-58
2023/06/20 02:20:42;;;;;;;11.05;7.47;;;21.90;99.90;;;;;;5068005;28;20157;-58
2023/06/20 02:23:09;;;;;;;9.70;7.20;;;22.00;99.90;;;;;;5055844;28;20625;-59
2023/06/20 02:25:37;;;;;;;9.10;7.00;;;21.80;99.90;;;;;;5061895;28;20039;-59
2023/06/20 02:28:04;;;;;;;13.45;6.80;;;22.00;99.90;;;;;;5062373;28;20037;-58
2023/06/20 02:30:31;;;;;;;10.65;6.03;;;22.00;99.90;;;;;;5062299;28;20103;-58
2023/06/20 02:33:00;;;;;;;7.07;5.90;;;22.10;99.90;;;;;;5057977;28;20048;-59
2023/06/20 02:35:26;;;;;;;10.10;6.07;;;22.20;99.90;;;;;;5052608;28;20040;-59
2023/06/20 02:37:58;;;;;;;6.97;5.40;;;22.10;99.90;;;;;;5055107;28;20036;-59
2023/06/20 02:40:24;;;;;;;8.70;5.10;;;22.10;99.90;;;;;;5062445;28;20054;-59
2023/06/20 02:42:50;;;;;;;6.57;5.20;;;22.10;99.90;;;;;;5062964;28;20037;-59
2023/06/20 02:45:17;;;;;;;9.13;5.50;;;22.10;99.90;;;;;;5056071;28;20045;-58
2023/06/20 02:48:13;;;;;;;9.88;5.00;;;22.00;99.90;;;;;;5068599;28;20158;-59
2023/06/20 02:50:55;;;;;;;6.22;4.85;;;21.80;99.90;;;;;;5068970;28;20036;-58
2023/06/20 02:53:31;;;;;;;9.40;5.45;;;21.90;99.90;;;;;;5064456;28;20060;-58
2023/06/20 02:56:01;;;;;;;6.55;4.97;;;21.80;99.90;;;;;;5065738;28;20044;-59
2023/06/20 02:58:29;;;;;;;7.72;5.22;;;21.90;99.90;;;;;;5060086;28;20040;-58
2023/06/20 03:00:58;;;;;;;8.18;5.05;;;21.90;99.90;;;;;;5057316;28;20139;-58
2023/06/20 03:03:30;;;;;;;8.13;5.18;;;21.90;99.90;;;;;;5069574;28;20060;-58
2023/06/20 03:05:57;;;;;;;10.15;5.63;;;21.90;99.90;;;;;;5056631;28;20826;-58
2023/06/20 03:08:25;;;;;;;10.57;5.32;;;21.80;99.90;;;;;;5060912;28;20047;-58
2023/06/20 03:10:53;;;;;;;9.32;5.20;;;21.80;99.90;;;;;;5066896;28;20063;-58
2023/06/20 03:13:20;;;;;;;8.35;5.70;;;22.00;99.90;;;;;;5061398;28;20514;-58
2023/06/20 03:15:45;;;;;;;7.00;5.95;;;22.00;99.90;;;;;;5061486;28;20056;-59
2023/06/20 03:18:12;;;;;;;10.77;5.85;;;22.10;99.90;;;;;;5056601;28;20065;-58
2023/06/20 03:20:37;;;;;;;8.85;5.75;;;22.10;99.90;;;;;;5064497;28;20401;-58
2023/06/20 03:23:03;;;;;;;10.20;6.00;;;22.00;99.90;;;;;;5067088;28;20464;-58
2023/06/20 03:25:28;;;;;;;7.68;4.95;;;21.90;99.90;;;;;;5057182;28;20032;-58
2023/06/20 03:27:54;;;;;;;7.88;5.85;;;22.00;99.90;;;;;;5057930;28;20502;-58
2023/06/20 03:30:20;;;;;;;7.63;5.30;;;21.90;99.90;;;;;;5063774;28;20040;-58
2023/06/20 03:32:45;;;;;;;6.93;5.57;;;21.90;99.90;;;;;;5067987;28;20063;-58
2023/06/20 03:35:11;;;;;;;8.93;6.10;;;21.80;99.90;;;;;;5063958;28;20040;-58
2023/06/20 03:37:36;;;;;;;8.63;5.93;;;21.90;99.90;;;;;;5068229;28;20379;-58
2023/06/20 03:40:03;;;;;;;9.73;6.55;;;21.80;99.90;;;;;;5060789;28;20454;-59
2023/06/20 03:42:28;;;;;;;9.63;6.25;;;22.00;99.90;;;;;;5059293;28;20033;-58
2023/06/20 03:44:54;;;;;;;7.28;5.95;;;21.80;99.90;;;;;;5063584;28;20102;-58
2023/06/20 03:47:19;;;;;;;12.05;6.63;;;21.70;99.90;;;;;;5059742;28;20118;-58
2023/06/20 03:49:45;;;;;;;11.27;6.55;;;21.70;99.90;;;;;;5061013;28;20166;-58
2023/06/20 03:52:10;;;;;;;10.85;7.20;;;21.70;99.90;;;;;;5060100;28;20036;-58
2023/06/20 03:54:37;;;;;;;11.05;6.70;;;21.70;99.90;;;;;;5067451;28;20036;-58
2023/06/20 03:57:03;;;;;;;8.15;6.80;;;21.70;99.90;;;;;;5064438;28;20040;-58
2023/06/20 03:59:28;;;;;;;10.50;7.65;;;21.80;99.90;;;;;;5071110;28;20040;-58
2023/06/20 04:01:54;;;;;;;8.95;7.05;;;21.80;99.90;;;;;;5066680;28;20041;-58
2023/06/20 04:04:20;;;;;;;11.82;7.45;;;21.70;99.90;;;;;;5062864;28;20192;-58
2023/06/20 04:06:49;;;;;;;9.30;7.13;;;21.70;99.90;;;;;;5061215;28;20052;-57
2023/06/20 04:09:17;;;;;;;13.18;7.88;;;21.60;99.90;;;;;;5058779;28;20055;-58
2023/06/20 04:11:43;;;;;;;10.52;7.32;;;21.50;99.90;;;;;;5063283;28;20043;-58
2023/06/20 04:14:08;;;;;;;11.18;7.47;;;21.50;99.90;;;;;;5057650;28;20041;-58
2023/06/20 04:16:34;;;;;;;11.02;7.50;;;21.40;99.90;;;;;;5064187;28;20036;-58
2023/06/20 04:18:59;;;;;;;10.52;7.20;;;21.40;99.90;;;;;;5062691;28;20391;-58
2023/06/20 04:21:25;;;;;;;10.07;6.78;;;21.40;99.90;;;;;;5070090;28;20033;-58
2023/06/20 04:23:51;;;;;;;10.90;7.13;;;21.40;99.90;;;;;;5056761;28;20060;-58
2023/06/20 04:26:16;;;;;;;10.60;7.32;;;21.30;99.90;;;;;;5055970;28;20037;-58
2023/06/20 04:28:42;;;;;;;10.48;7.60;;;21.40;99.90;;;;;;5064685;28;20127;-58
2023/06/20 04:31:08;;;;;;;11.63;7.10;;;21.40;99.90;;;;;;5060106;28;20171;-58
2023/06/20 04:33:33;;;;;;;11.80;7.47;;;21.30;99.90;;;;;;5064008;28;20041;-58
2023/06/20 04:35:59;;;;;;;12.90;7.47;;;21.30;99.90;;;;;;5060392;28;20052;-58
2023/06/20 04:38:24;;;;;;;9.20;7.20;;;21.20;99.90;;;;;;5064452;28;20056;-58
2023/06/20 04:40:50;;;;;;;11.85;7.20;;;21.40;99.90;;;;;;5063959;28;20044;-58
2023/06/20 04:43:16;;;;;;;10.43;7.03;;;21.40;99.90;;;;;;5065912;28;20450;-58
2023/06/20 04:45:41;;;;;;;11.52;6.72;;;21.30;99.90;;;;;;5067242;28;20032;-59
2023/06/20 04:48:07;;;;;;;8.18;6.60;;;21.50;99.90;;;;;;5062070;28;20386;-59
2023/06/20 04:50:33;;;;;;;9.45;6.40;;;21.40;99.90;;;;;;5060783;28;20041;-59
2023/06/20 04:52:58;;;;;;;10.57;6.63;;;21.30;99.90;;;;;;5070849;28;20140;-59
2023/06/20 04:55:24;;;;;;;10.25;6.10;;;21.10;99.90;;;;;;5060759;28;20380;-59
2023/06/20 04:57:49;;;;;;;11.02;6.32;;;21.40;99.90;;;;;;5059814;28;20350;-59
2023/06/20 05:00:15;;;;;;;11.38;6.10;;;21.50;99.90;;;;;;5056323;28;20400;-59
2023/06/20 05:02:42;;;;;;;8.02;5.82;;;21.10;99.90;;;;;;5056483;28;20059;-59
2023/06/20 05:05:08;;;;;;;8.43;5.88;;;21.60;99.90;;;;;;5062579;28;20041;-58
2023/06/20 05:07:34;;;;;;;23.88;10.20;;;21.50;99.90;;;;;;5067821;28;20040;-59
2023/06/20 05:10:00;;;;;;;9.50;6.38;;;21.60;99.90;;;;;;5065133;28;20043;-59
2023/06/20 05:12:25;;;;;;;9.93;6.72;;;21.70;99.90;;;;;;5061105;28;20040;-59
2023/06/20 05:14:51;;;;;;;12.07;6.53;;;21.70;99.90;;;;;;5060451;28;20036;-59
2023/06/20 05:17:16;;;;;;;16.65;8.18;;;21.70;99.90;;;;;;5063424;28;21318;-59
2023/06/20 05:19:42;;;;;;;12.23;6.13;;;21.70;99.90;;;;;;5055802;28;20479;-59
2023/06/20 05:22:07;;;;;;;10.77;6.30;;;21.70;99.90;;;;;;5065649;28;20041;-59
2023/06/20 05:24:33;;;;;;;10.35;6.10;;;21.70;99.90;;;;;;5069559;28;20112;-59
2023/06/20 05:26:59;;;;;;;9.25;6.30;;;21.80;99.90;;;;;;5067351;28;20090;-59
2023/06/20 05:29:24;;;;;;;11.00;6.30;;;21.70;99.90;;;;;;5056624;28;20037;-59
2023/06/20 05:31:50;;;;;;;15.73;6.95;;;21.80;99.90;;;;;;5056764;28;20036;-59
2023/06/20 05:34:15;;;;;;;8.90;5.97;;;22.00;99.90;;;;;;5053423;28;20124;-60
2023/06/20 05:36:41;;;;;;;12.18;5.68;;;22.20;99.90;;;;;;5056831;28;20116;-60
2023/06/20 05:39:08;;;;;;;11.05;5.47;;;22.10;99.90;;;;;;5061140;28;20075;-61
2023/06/20 05:41:35;;;;;;;7.78;4.63;;;22.20;99.90;;;;;;5061490;28;20555;-60
2023/06/20 05:44:01;;;;;;;9.65;4.90;;;22.30;99.90;;;;;;5058846;28;20037;-60
2023/06/20 05:46:26;;;;;;;11.20;5.03;;;22.30;99.90;;;;;;5058880;28;20111;-61
2023/06/20 05:48:52;;;;;;;7.43;4.78;;;22.20;99.90;;;;;;5064477;28;20032;-60
2023/06/20 05:51:18;;;;;;;10.13;5.00;;;22.00;99.90;;;;;;5058099;28;20055;-60
2023/06/20 05:53:43;;;;;;;11.80;5.25;;;22.00;99.90;;;;;;5060111;28;20032;-61
2023/06/20 05:56:10;;;;;;;8.57;5.20;;;22.00;99.90;;;;;;5064133;28;20028;-61
2023/06/20 05:58:38;;;;;;;8.80;5.25;;;22.20;99.90;;;;;;5060149;28;20033;-61
2023/06/20 06:01:04;;;;;;;9.73;5.00;;;22.40;99.90;;;;;;5061675;28;20102;-61
2023/06/20 06:03:33;;;;;;;10.57;4.80;;;22.60;99.90;;;;;;5065363;28;20053;-61
2023/06/20 06:05:59;;;;;;;8.55;5.10;;;22.70;99.90;;;;;;5056402;28;20074;-61
2023/06/20 06:08:25;;;;;;;7.78;4.43;;;22.70;99.90;;;;;;5055708;28;20040;-60
2023/06/20 06:10:52;;;;;;;6.60;4.30;;;22.80;99.90;;;;;;5063105;28;20134;-60
2023/06/20 06:13:18;;;;;;;8.95;4.78;;;22.90;99.90;;;;;;5068405;28;20067;-60
2023/06/20 06:15:43;;;;;;;9.55;4.72;;;22.90;99.90;;;;;;5067445;28;20491;-60
2023/06/20 06:18:09;;;;;;;8.55;4.93;;;22.90;99.90;;;;;;5064063;28;20462;-60
2023/06/20 06:20:35;;;;;;;11.55;5.50;;;23.10;99.90;;;;;;5062452;28;20051;-60
2023/06/20 06:23:00;;;;;;;9.02;5.07;;;23.10;99.90;;;;;;5060823;28;20050;-60
2023/06/20 06:25:26;;;;;;;9.13;4.80;;;23.10;99.90;;;;;;5059997;28;21069;-58
2023/06/20 06:27:52;;;;;;;6.97;5.40;;;23.20;99.90;;;;;;5055351;28;20033;-58
2023/06/20 06:30:17;;;;;;;7.18;5.35;;;23.40;99.90;;;;;;5060847;28;20556;-58
2023/06/20 06:32:47;;;;;;;9.68;5.00;;;23.90;99.90;;;;;;5064415;28;20128;-58
2023/06/20 06:35:13;;;;;;;8.60;5.18;;;23.60;99.90;;;;;;5062560;28;20060;-58
2023/06/20 06:37:40;;;;;;;7.60;4.90;;;23.50;99.90;;;;;;5063186;28;20126;-58
2023/06/20 06:40:07;;;;;;;5.95;4.68;;;23.60;99.90;;;;;;5061879;28;20044;-58
2023/06/20 06:42:33;;;;;;;9.23;5.25;;;23.70;99.90;;;;;;5065954;28;20698;-58
2023/06/20 06:44:59;;;;;;;5.97;4.70;;;23.80;99.90;;;;;;5066867;28;20029;-58
2023/06/20 06:47:25;;;;;;;8.48;5.05;;;23.90;99.90;;;;;;5066826;28;20040;-58
2023/06/20 06:49:50;;;;;;;6.45;4.20;;;23.80;99.90;;;;;;5068867;28;20050;-58
2023/06/20 06:52:16;;;;;;;7.35;4.38;;;23.90;99.90;;;;;;5053839;28;20324;-58
2023/06/20 06:54:41;;;;;;;90.15;73.68;;;24.00;99.90;;;;;;5058984;28;20060;-60
2023/06/20 06:57:07;;;;;;;93.53;69.97;;;24.10;99.90;;;;;;5062987;28;20040;-60
2023/06/20 06:59:33;;;;;;;5.85;5.00;;;24.10;99.90;;;;;;5069788;28;20048;-60
2023/06/20 07:01:58;;;;;;;7.00;5.55;;;24.20;99.90;;;;;;5068053;28;20039;-60
2023/06/20 07:04:24;;;;;;;8.50;5.38;;;24.20;99.90;;;;;;5066766;28;20044;-60
2023/06/20 07:06:49;;;;;;;9.43;5.28;;;24.40;99.90;;;;;;5064393;28;20039;-59
2023/06/20 07:09:15;;;;;;;6.78;5.32;;;24.40;99.90;;;;;;5060274;28;20069;-60
2023/06/20 07:11:40;;;;;;;7.28;5.25;;;24.50;99.90;;;;;;5062707;28;20440;-60
2023/06/20 07:14:06;;;;;;;5.70;4.63;;;24.60;99.90;;;;;;5069799;28;20332;-60
2023/06/20 07:16:32;;;;;;;10.20;5.40;;;24.70;99.90;;;;;;5061937;28;20025;-60
2023/06/20 07:19:00;;;;;;;8.80;5.20;;;24.70;99.90;;;;;;5063815;28;20024;-60
2023/06/20 07:21:26;;;;;;;9.07;5.85;;;24.70;99.90;;;;;;5063191;28;20051;-60
2023/06/20 07:23:52;;;;;;;7.10;4.90;;;24.80;99.90;;;;;;5068924;28;20040;-60
2023/06/20 07:26:18;;;;;;;8.52;5.82;;;24.80;99.90;;;;;;5066202;28;20037;-60
2023/06/20 07:28:43;;;;;;;7.55;5.10;;;24.90;99.90;;;;;;5065375;28;20048;-60
2023/06/20 07:31:18;;;;;;;6.97;5.22;;;24.90;99.90;;;;;;5064969;28;20044;-60
2023/06/20 07:33:45;;;;;;;10.63;5.38;;;25.00;99.90;;;;;;5063632;28;20040;-60
2023/06/20 07:36:11;;;;;;;9.38;5.40;;;25.10;99.90;;;;;;5060741;28;20400;-61
2023/06/20 07:38:36;;;;;;;7.72;4.88;;;25.20;99.90;;;;;;5060135;28;20040;-60
2023/06/20 07:41:02;;;;;;;8.00;4.78;;;25.20;99.90;;;;;;5063023;28;20106;-60
2023/06/20 07:43:27;;;;;;;7.18;4.97;;;25.40;99.90;;;;;;5061418;28;20749;-61
2023/06/20 07:45:53;;;;;;;6.25;5.10;;;25.40;99.90;;;;;;5063947;28;20454;-60
2023/06/20 07:48:18;;;;;;;4.72;4.28;;;25.50;99.90;;;;;;5065055;28;20496;-60
2023/06/20 07:50:44;;;;;;;5.70;4.88;;;25.60;99.90;;;;;;5059538;28;20143;-60
2023/06/20 07:53:09;;;;;;;8.35;4.78;;;25.80;99.90;;;;;;5063266;28;20086;-60
2023/06/20 07:55:36;;;;;;;12.48;5.60;;;26.00;99.90;;;;;;5056484;28;20044;-60
2023/06/20 07:58:01;;;;;;;8.38;6.25;;;25.90;99.90;;;;;;5062359;28;20262;-60
2023/06/20 08:00:28;;;;;;;7.88;5.50;;;25.90;99.90;;;;;;5064164;28;20504;-60
2023/06/20 08:02:53;;;;;;;13.45;6.93;;;26.00;99.90;;;;;;5054663;28;20060;-61
2023/06/20 08:05:19;;;;;;;8.40;5.85;;;26.00;99.90;;;;;;5063591;28;20056;-61
2023/06/20 08:07:45;;;;;;;11.73;5.95;;;25.90;99.90;;;;;;5065770;28;20099;-60
2023/06/20 08:10:11;;;;;;;8.93;6.82;;;25.90;99.90;;;;;;5063957;28;20037;-60
2023/06/20 08:12:37;;;;;;;7.90;5.78;;;25.90;99.90;;;;;;5064160;28;20055;-60
2023/06/20 08:15:03;;;;;;;9.55;5.63;;;25.80;99.90;;;;;;5064731;28;20511;-60
2023/06/20 08:17:29;;;;;;;7.90;5.10;;;25.90;99.90;;;;;;5068083;28;20484;-60
2023/06/20 08:19:56;;;;;;;8.07;5.18;;;25.80;99.90;;;;;;5062820;28;20067;-60
2023/06/20 08:22:21;;;;;;;8.10;5.15;;;26.00;99.90;;;;;;5065116;28;20116;-60
2023/06/20 08:24:47;;;;;;;6.00;5.32;;;26.30;99.90;;;;;;5058053;28;20440;-60
2023/06/20 08:27:13;;;;;;;6.35;5.47;;;26.40;99.90;;;;;;5063277;28;20036;-60
2023/06/20 08:29:38;;;;;;;15.85;13.75;;;26.40;99.90;;;;;;5055140;28;20033;-61
2023/06/20 08:32:04;;;;;;;6.68;5.65;;;26.40;99.90;;;;;;5054545;28;20049;-60
2023/06/20 08:34:31;;;;;;;7.18;4.90;;;26.60;99.90;;;;;;5066851;28;20052;-60
2023/06/20 08:36:56;;;;;;;8.15;5.70;;;26.60;99.90;;;;;;5067178;28;20098;-61
2023/06/20 08:39:23;;;;;;;5.88;4.88;;;26.60;99.90;;;;;;5069151;28;20048;-60
2023/06/20 08:41:50;;;;;;;6.15;5.40;;;26.60;99.90;;;;;;5071347;28;20066;-61
2023/06/20 08:44:15;;;;;;;8.20;5.45;;;26.50;99.90;;;;;;5063828;28;20040;-61
2023/06/20 08:46:41;;;;;;;7.93;6.03;;;26.70;99.90;;;;;;5062017;28;20046;-61
2023/06/20 08:49:07;;;;;;;9.00;5.80;;;26.70;99.90;;;;;;5059753;28;20385;-60
2023/06/20 08:51:37;;;;;;;8.07;6.10;;;26.60;99.90;;;;;;5068807;28;20233;-60
2023/06/20 08:54:06;;;;;;;9.15;5.60;;;26.50;99.90;;;;;;5068289;28;20040;-61
2023/06/20 08:56:32;;;;;;;6.88;6.13;;;26.60;99.90;;;;;;5066427;28;20052;-60
2023/06/20 08:58:58;;;;;;;8.85;6.43;;;26.30;99.90;;;;;;5067537;28;20491;-60
2023/06/20 09:01:24;;;;;;;11.27;6.60;;;26.00;99.90;;;;;;5062983;28;20040;-61
2023/06/20 09:03:54;;;;;;;8.52;6.70;;;25.80;99.90;;;;;;5059042;28;20047;-60
2023/06/20 09:06:32;;;;;;;8.63;7.05;;;26.20;99.90;;;;;;5061826;28;20518;-60
2023/06/20 09:08:58;;;;;;;8.10;6.63;;;26.50;99.90;;;;;;5058824;28;20111;-61
2023/06/20 09:11:25;;;;;;;7.53;6.72;;;26.30;99.90;;;;;;5067997;28;20536;-60
2023/06/20 09:13:50;;;;;;;9.02;7.10;;;26.50;99.90;;;;;;5070060;28;20032;-60
2023/06/20 09:16:16;;;;;;;8.40;7.05;;;26.60;99.90;;;;;;5059697;28;20644;-60
2023/06/20 09:18:41;;;;;;;7.88;6.25;;;26.70;99.90;;;;;;5062601;28;20031;-61
2023/06/20 09:21:15;;;;;;;7.05;6.10;;;26.80;99.90;;;;;;5058972;28;20097;-61
2023/06/20 09:23:40;;;;;;;;;;;26.90;99.90;;;;;;5063346;28;20033;-60
2023/06/20 09:26:14;;;;;;;7.90;5.53;;;27.00;99.90;;;;;;5062400;28;20159;-61
2023/06/20 09:28:40;;;;;;;9.95;5.55;;;27.30;99.90;;;;;;5061083;28;20044;-61
2023/06/20 09:31:05;;;;;;;8.02;5.88;;;27.30;99.90;;;;;;5059914;28;20040;-60
2023/06/20 09:33:31;;;;;;;6.97;5.22;;;27.50;99.90;;;;;;5062231;28;20068;-61
2023/06/20 09:36:16;;;;;;;6.45;5.18;;;28.00;99.90;;;;;;5062929;28;20037;-61
2023/06/20 09:38:51;;;;;;;7.18;5.20;;;27.60;99.90;;;;;;5058624;28;20103;-61
2023/06/20 09:41:17;;;;;;;6.82;4.60;;;27.50;99.90;;;;;;5058260;28;20489;-61
2023/06/20 09:43:43;;;;;;;6.43;4.57;;;27.60;99.90;;;;;;5061653;28;20043;-61
2023/06/20 09:46:09;;;;;;;7.93;4.55;;;27.50;99.90;;;;;;5060631;28;20039;-61
2023/06/20 09:48:36;;;;;;;7.32;4.20;;;27.50;99.90;;;;;;5061975;28;20028;-61
2023/06/20 09:51:02;;;;;;;4.80;4.30;;;27.50;99.90;;;;;;5062822;28;20054;-61
2023/06/20 09:54:20;;;;;;;6.50;4.68;;;27.50;99.90;;;;;;5063619;28;20040;-60
2023/06/20 09:56:56;;;;;;;5.07;4.32;;;27.60;99.90;;;;;;5057185;28;20690;-60
2023/06/20 09:59:26;;;;;;;6.15;4.05;;;27.60;99.90;;;;;;5062715;28;20044;-61
2023/06/20 10:01:54;;;;;;;8.98;4.78;;;27.70;99.90;;;;;;5064455;28;20623;-60
2023/06/20 10:04:20;;;;;;;5.53;4.10;;;27.80;99.90;;;;;;5057621;28;20324;-61
2023/06/20 10:06:47;;;;;;;5.03;4.32;;;27.90;99.90;;;;;;5064445;28;20033;-60
2023/06/20 10:09:14;;;;;;;7.95;4.28;;;28.00;99.90;;;;;;5070153;28;20504;-61
2023/06/20 10:11:41;;;;;;;6.85;4.45;;;28.10;99.90;;;;;;5071543;28;20506;-60
2023/06/20 10:14:08;;;;;;;4.65;3.95;;;28.10;99.90;;;;;;5064588;28;20037;-60
2023/06/20 10:16:34;;;;;;;6.25;4.47;;;27.90;99.90;;;;;;5069077;28;20036;-62
2023/06/20 10:19:16;;;;;;;6.15;4.80;;;28.10;99.90;;;;;;5065054;28;20036;-60
2023/06/20 10:22:01;;;;;;;7.57;4.63;;;28.10;99.90;;;;;;5063272;28;20275;-60
2023/06/20 10:24:28;;;;;;;9.95;4.28;;;27.80;99.90;;;;;;5067459;28;20029;-61
2023/06/20 10:26:59;;;;;;;5.45;4.60;;;28.00;99.90;;;;;;5064751;28;20075;-60
2023/06/20 10:29:25;;;;;;;8.10;4.80;;;28.20;99.90;;;;;;5068508;28;20726;-60
2023/06/20 10:32:04;;;;;;;7.22;4.50;;;29.20;99.90;;;;;;5074011;28;20117;-60
2023/06/20 10:34:39;;;;;;;7.00;4.72;;;28.50;99.90;;;;;;5070500;28;20045;-60
2023/06/20 10:37:20;;;;;;;7.13;4.55;;;28.50;99.90;;;;;;5063320;28;20037;-60
2023/06/20 10:39:53;;;;;;;4.90;4.18;;;28.40;99.90;;;;;;5064813;28;20044;-61
2023/06/20 10:42:39;;;;;;;7.47;4.70;;;28.40;99.90;;;;;;5057432;28;20089;-60
2023/06/20 10:45:25;;;;;;;8.25;4.72;;;28.20;99.90;;;;;;5058237;28;20037;-60
2023/06/20 10:47:52;;;;;;;8.00;6.50;;;28.30;99.90;;;;;;5060904;28;20036;-60
2023/06/20 10:50:18;;;;;;;3.60;3.20;;;28.30;99.90;;;;;;5070294;28;20102;-60
2023/06/20 10:52:44;;;;;;;8.80;5.93;;;28.40;99.90;;;;;;5071736;28;20553;-60
2023/06/20 10:55:15;;;;;;;7.13;5.85;;;28.40;99.90;;;;;;5080914;28;20119;-60
2023/06/20 10:57:45;;;;;;;8.68;7.28;;;28.40;99.90;;;;;;5062372;28;20119;-60
2023/06/20 11:00:14;;;;;;;4.78;3.70;;;28.70;99.90;;;;;;5065468;28;20041;-60
2023/06/20 11:02:40;;;;;;;4.28;3.88;;;28.50;99.90;;;;;;5063044;28;20604;-60
2023/06/20 11:05:07;;;;;;;9.48;6.88;;;28.40;99.90;;;;;;5068323;28;20228;-60
2023/06/20 11:07:32;;;;;;;4.55;3.80;;;28.40;99.90;;;;;;5072295;28;20029;-61
2023/06/20 11:09:58;;;;;;;4.65;3.67;;;28.20;99.90;;;;;;5060677;28;20637;-61
2023/06/20 11:12:23;;;;;;;8.38;6.15;;;28.50;99.90;;;;;;5062477;28;20041;-61
2023/06/20 11:14:49;;;;;;;5.88;3.92;;;28.50;99.90;;;;;;5066227;28;20550;-60
2023/06/20 11:17:15;;;;;;;19.55;15.60;;;28.60;99.90;;;;;;5063599;28;20134;-61
2023/06/20 11:19:41;;;;;;;6.47;3.80;;;28.70;99.90;;;;;;5058621;28;20052;-61
2023/06/20 11:22:06;;;;;;;4.90;3.55;;;28.80;99.90;;;;;;5070879;28;20036;-62
2023/06/20 11:24:35;;;;;;;11.73;9.45;;;29.00;99.90;;;;;;5059793;28;20044;-61
2023/06/20 11:27:11;;;;;;;7.38;3.92;;;29.00;99.90;;;;;;5062490;28;20033;-61
2023/06/20 11:29:37;;;;;;;7.28;4.10;;;29.20;99.90;;;;;;5073245;28;20047;-61
2023/06/20 11:32:10;;;;;;;4.47;3.63;;;29.10;99.90;;;;;;5065227;28;20045;-61
2023/06/20 11:34:54;;;;;;;;;;;28.80;99.90;;;;;;5067325;28;20045;-61
2023/06/20 11:37:23;;;;;;;;;;;28.90;99.90;;;;;;5059864;27;20299;-61
2023/06/20 11:39:48;;;;;;;4.82;3.75;;;29.10;99.90;;;;;;5063754;28;19924;-61
2023/06/20 11:42:15;;;;;;;5.90;4.78;;;29.20;99.90;;;;;;5066400;28;20411;-61
2023/06/20 11:44:41;;;;;;;6.57;3.72;;;29.40;99.90;;;;;;5061427;28;20407;-61
2023/06/20 11:47:06;;;;;;;4.80;3.70;;;29.30;99.90;;;;;;5067625;28;20040;-61
2023/06/20 11:49:33;;;;;;;4.25;3.55;;;29.40;99.90;;;;;;5065834;28;20298;-61
2023/06/20 11:51:59;;;;;;;4.57;3.60;;;29.60;99.90;;;;;;5064698;28;20033;-62
2023/06/20 11:54:25;;;;;;;5.30;3.95;;;29.70;99.90;;;;;;5062316;28;20040;-61
2023/06/20 11:56:51;;;;;;;5.78;3.22;;;29.70;99.90;;;;;;5064469;28;20033;-61
2023/06/20 11:59:24;;;;;;;5.70;3.83;;;29.70;99.90;;;;;;5066934;28;20187;-62
2023/06/20 12:01:49;;;;;;;5.22;3.30;;;29.90;99.90;;;;;;5059868;28;20258;-61
2023/06/20 12:04:19;;;;;;;7.72;6.55;;;29.70;99.90;;;;;;5059408;28;20107;-61
2023/06/20 12:06:48;;;;;;;5.00;3.58;;;30.10;99.90;;;;;;5062135;28;20037;-61
2023/06/20 12:09:16;;;;;;;4.47;3.72;;;29.50;99.90;;;;;;5064684;28;20055;-62
2023/06/20 12:11:55;;;;;;;4.43;3.72;;;29.40;99.90;;;;;;5063854;28;20154;-62
2023/06/20 12:14:25;;;;;;;5.05;3.55;;;;;;;;;;5063023;28;20445;-61
2023/06/20 12:16:51;;;;;;;5.18;4.32;;;29.50;99.90;;;;;;5067936;28;20036;-61
2023/06/20 12:19:19;;;;;;;4.45;3.45;;;29.20;99.90;;;;;;5066007;28;20119;-61
2023/06/20 12:21:45;;;;;;;4.15;3.50;;;29.20;99.90;;;;;;5060603;28;20564;-61
2023/06/20 12:24:11;;;;;;;5.13;3.72;;;29.20;99.90;;;;;;5067453;28;20031;-62
2023/06/20 12:26:38;;;;;;;4.45;3.63;;;29.50;99.90;;;;;;5065254;28;20488;-61
2023/06/20 12:29:04;;;;;;;4.72;4.10;;;29.90;99.90;;;;;;5062756;28;20572;-61
2023/06/20 12:31:30;;;;;;;6.72;3.50;;;29.80;99.90;;;;;;5064087;28;20120;-61
2023/06/20 12:33:56;;;;;;;7.07;3.30;;;30.00;99.90;;;;;;5065982;28;20036;-61
2023/06/20 12:36:21;;;;;;;6.88;4.72;;;29.50;99.90;;;;;;5063180;28;20499;-61
2023/06/20 12:38:47;;;;;;;4.85;4.00;;;29.30;99.90;;;;;;5062716;28;20028;-62
2023/06/20 12:41:13;;;;;;;5.13;3.80;;;29.40;99.90;;;;;;5062460;28;20553;-61
2023/06/20 12:43:39;;;;;;;3.97;3.58;;;29.50;99.90;;;;;;5062246;28;20051;-61
2023/06/20 12:46:05;;;;;;;4.70;4.07;;;29.80;99.90;;;;;;5061006;28;20071;-61
2023/06/20 12:48:31;;;;;;;4.97;3.70;;;29.80;99.90;;;;;;5061661;28;20432;-62